Iaciara, Brazil
Current Conditions -  °F | °C
As of 5:40 PM on Sunday 23 Nov 2014 (Local Time) from SBBR Reporting Station
Moderate Rain Moderate Rain  
Wind Chill: 70°   Ceiling: 1700
Heat Index: 70°   Visibility: 1.8mi
Dew Point: 64°   Wind: 14mph
Humidity: 83%   Direction: 10°N
Pressure: 30"   Gusts: NA
Location:  14.1°S, 46.63°W
Report Text: SBBR 231940Z 01012KT 3000 RA OVC017 21/18 Q1016
Loading
Personal Weather Stations






























Interactive Weather Map New forecast layout! Learn more

10-Day Weather Forecast

Advertisements
Track Severe Weather on mobile